createdAt,value
2023-05-21T00:01:48.504Z,50.49
2023-05-21T00:04:18.131Z,50.52
2023-05-21T00:06:45.952Z,50.57
2023-05-21T00:09:13.792Z,50.51
2023-05-21T00:11:43.493Z,50.57
2023-05-21T00:14:11.322Z,50.53
2023-05-21T00:16:39.176Z,50.41
2023-05-21T00:19:07.590Z,50.60
2023-05-21T00:21:35.412Z,50.79
2023-05-21T00:24:03.212Z,50.66
2023-05-21T00:26:31.489Z,50.61
2023-05-21T00:29:00.843Z,50.83
2023-05-21T00:31:28.650Z,50.73
2023-05-21T00:33:56.923Z,50.67
2023-05-21T00:36:25.210Z,50.56
2023-05-21T00:38:53.056Z,50.78
2023-05-21T00:41:23.253Z,50.82
2023-05-21T00:43:51.070Z,50.79
2023-05-21T00:46:22.378Z,50.70
2023-05-21T00:48:51.669Z,50.92
2023-05-21T00:51:21.839Z,50.88
2023-05-21T00:53:52.558Z,51.04
2023-05-21T00:56:21.872Z,50.87
2023-05-21T00:58:51.801Z,50.88
2023-05-21T01:01:21.745Z,51.08
2023-05-21T01:03:49.613Z,51.06
2023-05-21T01:06:17.426Z,51.07
2023-05-21T01:08:45.739Z,51.03
2023-05-21T01:11:15.049Z,51.18
2023-05-21T01:13:43.594Z,51.23
2023-05-21T01:16:13.987Z,51.14
2023-05-21T01:18:45.218Z,51.26
2023-05-21T01:21:13.655Z,51.25
2023-05-21T01:23:43.494Z,51.28
2023-05-21T01:26:12.961Z,51.29
2023-05-21T01:28:40.809Z,51.67
2023-05-21T01:31:18.367Z,51.40
2023-05-21T01:33:51.100Z,51.46
2023-05-21T01:36:26.721Z,51.77
2023-05-21T01:39:02.064Z,51.89
2023-05-21T01:41:33.976Z,51.77
2023-05-21T01:44:03.223Z,51.86
2023-05-21T01:46:34.776Z,51.73
2023-05-21T01:49:03.745Z,51.84
2023-05-21T01:51:32.149Z,51.73
2023-05-21T01:54:01.331Z,51.81
2023-05-21T01:56:29.185Z,52.01
2023-05-21T01:58:59.782Z,51.86
2023-05-21T02:01:30.154Z,52.02
2023-05-21T02:03:58.575Z,52.47
2023-05-21T02:06:26.871Z,52.64
2023-05-21T02:08:55.536Z,52.19
2023-05-21T02:11:24.795Z,52.19
2023-05-21T02:13:52.799Z,52.43
2023-05-21T02:16:22.507Z,52.41
2023-05-21T02:18:52.225Z,52.63
2023-05-21T02:21:20.899Z,51.74
2023-05-21T02:23:48.873Z,52.42
2023-05-21T02:26:17.480Z,52.00
2023-05-21T02:28:46.996Z,52.41
2023-05-21T02:31:14.828Z,52.53
2023-05-21T02:33:43.117Z,52.30
2023-05-21T02:36:13.493Z,52.68
2023-05-21T02:38:43.444Z,52.34
2023-05-21T02:41:11.920Z,52.82
2023-05-21T02:43:39.978Z,52.81
2023-05-21T02:46:09.564Z,52.78
2023-05-21T02:48:37.222Z,52.13
2023-05-21T02:51:05.429Z,52.71
2023-05-21T02:53:33.290Z,53.05
2023-05-21T02:56:01.191Z,52.86
2023-05-21T02:58:29.234Z,53.12
2023-05-21T03:00:57.088Z,53.15
2023-05-21T03:03:26.406Z,53.37
2023-05-21T03:05:54.757Z,52.99
2023-05-21T03:08:22.570Z,53.35
2023-05-21T03:10:50.393Z,53.05
2023-05-21T03:13:18.608Z,53.20
2023-05-21T03:15:46.599Z,52.92
2023-05-21T03:18:14.527Z,53.17
2023-05-21T03:20:45.882Z,53.43
2023-05-21T03:23:16.469Z,53.66
2023-05-21T03:25:46.325Z,53.66
2023-05-21T03:28:14.176Z,53.56
2023-05-21T03:30:41.991Z,53.62
2023-05-21T03:33:11.482Z,53.59
2023-05-21T03:35:39.314Z,53.88
2023-05-21T03:38:08.708Z,53.83
2023-05-21T03:40:36.861Z,54.06
2023-05-21T03:43:04.722Z,54.18
2023-05-21T03:45:32.523Z,54.47
2023-05-21T03:48:02.276Z,54.88
2023-05-21T03:50:30.186Z,54.89
2023-05-21T03:52:58.005Z,55.38
2023-05-21T03:55:27.549Z,55.17
2023-05-21T03:57:55.179Z,55.10
2023-05-21T04:00:23.022Z,55.73
2023-05-21T04:02:51.201Z,55.66
2023-05-21T04:05:19.110Z,55.90
2023-05-21T04:07:47.433Z,55.59
2023-05-21T04:10:15.398Z,56.01
2023-05-21T04:12:44.588Z,55.91
2023-05-21T04:15:12.794Z,56.08
2023-05-21T04:17:40.860Z,56.34
2023-05-21T04:20:09.713Z,56.66
2023-05-21T04:22:37.775Z,56.24
2023-05-21T04:25:06.467Z,56.62
2023-05-21T04:27:34.587Z,56.32
2023-05-21T04:30:05.025Z,56.38
2023-05-21T04:32:33.575Z,56.42
2023-05-21T04:35:02.036Z,56.30
2023-05-21T04:37:31.438Z,56.18
2023-05-21T04:40:01.821Z,56.77
2023-05-21T04:42:30.422Z,56.79
2023-05-21T04:44:59.450Z,56.90
2023-05-21T04:47:30.549Z,56.83
2023-05-21T04:49:59.379Z,56.89
2023-05-21T04:52:27.227Z,56.44
2023-05-21T04:54:55.507Z,56.64
2023-05-21T04:57:24.521Z,56.64
2023-05-21T04:59:52.731Z,57.01
2023-05-21T05:02:21.015Z,57.20
2023-05-21T05:04:50.268Z,57.06
2023-05-21T05:07:18.623Z,57.19
2023-05-21T05:09:46.731Z,57.30
2023-05-21T05:12:14.578Z,57.01
2023-05-21T05:14:42.411Z,57.12
2023-05-21T05:17:10.879Z,57.35
2023-05-21T05:19:38.680Z,57.11
2023-05-21T05:22:08.121Z,57.40
2023-05-21T05:24:36.214Z,57.45
2023-05-21T05:27:04.104Z,57.56
2023-05-21T05:29:31.953Z,57.61
2023-05-21T05:31:59.976Z,57.40
2023-05-21T05:34:27.830Z,57.65
2023-05-21T05:36:57.239Z,57.29
2023-05-21T05:39:26.698Z,57.62
2023-05-21T05:41:54.577Z,57.87
2023-05-21T05:44:22.387Z,57.67
2023-05-21T05:46:50.484Z,58.19
2023-05-21T05:49:18.321Z,57.44
2023-05-21T05:51:46.158Z,57.74
2023-05-21T05:54:14.058Z,58.25
2023-05-21T05:56:43.255Z,58.20
2023-05-21T05:59:11.063Z,58.25
2023-05-21T06:01:38.932Z,58.08
2023-05-21T06:04:06.776Z,58.56
2023-05-21T06:06:34.954Z,57.84
2023-05-21T06:09:02.929Z,57.78
2023-05-21T06:11:30.858Z,57.90
2023-05-21T06:14:01.729Z,58.16
2023-05-21T06:16:31.324Z,58.11
2023-05-21T06:18:59.579Z,58.08
2023-05-21T06:21:27.759Z,58.32
2023-05-21T06:23:55.561Z,58.08
2023-05-21T06:26:23.822Z,57.88
2023-05-21T06:28:51.649Z,58.24
2023-05-21T06:31:22.387Z,58.09
2023-05-21T06:33:50.862Z,57.94
2023-05-21T06:36:19.902Z,57.82
2023-05-21T06:38:47.876Z,58.33
2023-05-21T06:41:15.684Z,58.02
2023-05-21T06:43:43.741Z,58.17
2023-05-21T06:46:11.617Z,57.99
2023-05-21T06:48:40.799Z,58.39
2023-05-21T06:51:08.642Z,58.14
2023-05-21T06:53:36.490Z,58.12
2023-05-21T06:56:04.542Z,58.12
2023-05-21T06:58:32.398Z,57.83
2023-05-21T07:01:00.239Z,57.87
2023-05-21T07:03:28.637Z,58.20
2023-05-21T07:05:58.939Z,57.55
2023-05-21T07:08:27.253Z,57.56
2023-05-21T07:10:56.724Z,57.56
2023-05-21T07:13:24.588Z,57.80
2023-05-21T07:15:52.388Z,57.43
2023-05-21T07:18:20.736Z,57.30
2023-05-21T07:20:48.615Z,57.51
2023-05-21T07:23:17.887Z,57.43
2023-05-21T07:25:46.026Z,56.78
2023-05-21T07:28:13.873Z,56.95
2023-05-21T07:30:41.722Z,56.51
2023-05-21T07:33:09.885Z,56.12
2023-05-21T07:35:37.940Z,56.40
2023-05-21T07:38:08.291Z,56.16
2023-05-21T07:40:37.594Z,56.16
2023-05-21T07:43:05.419Z,56.29
2023-05-21T07:45:33.270Z,55.85
2023-05-21T07:48:01.367Z,55.75
2023-05-21T07:50:29.316Z,55.68
2023-05-21T07:52:57.146Z,55.66
2023-05-21T07:55:25.017Z,55.30
2023-05-21T07:57:54.252Z,55.18
2023-05-21T08:00:26.019Z,55.24
2023-05-21T08:02:53.899Z,55.20
2023-05-21T08:05:23.492Z,55.15
2023-05-21T08:07:51.428Z,55.05
2023-05-21T08:10:19.674Z,54.97
2023-05-21T08:12:47.647Z,54.65
2023-05-21T08:15:17.285Z,54.64
2023-05-21T08:17:45.148Z,54.74
2023-05-21T08:20:14.452Z,54.70
2023-05-21T08:22:43.327Z,54.36
2023-05-21T08:25:11.194Z,54.11
2023-05-21T08:27:39.180Z,54.81
2023-05-21T08:30:08.993Z,53.74
2023-05-21T08:32:38.291Z,53.62
2023-05-21T08:35:07.296Z,52.81
2023-05-21T08:37:35.372Z,53.01
2023-05-21T08:40:03.958Z,52.86
2023-05-21T08:42:44.153Z,53.05
2023-05-21T08:45:13.721Z,52.70
2023-05-21T08:47:44.957Z,52.54
2023-05-21T08:50:14.435Z,52.71
2023-05-21T08:52:42.561Z,52.91
2023-05-21T08:55:11.034Z,52.34
2023-05-21T08:57:43.816Z,51.98
2023-05-21T09:00:12.795Z,52.10
2023-05-21T09:02:43.575Z,52.42
2023-05-21T09:05:14.502Z,51.60
2023-05-21T09:07:50.393Z,51.78
2023-05-21T09:10:25.389Z,51.50
2023-05-21T09:12:53.307Z,51.63
2023-05-21T09:15:21.418Z,52.15
2023-05-21T09:17:49.506Z,51.39
2023-05-21T09:20:19.266Z,51.65
2023-05-21T09:22:49.084Z,51.79
2023-05-21T09:25:18.445Z,51.61
2023-05-21T09:27:46.295Z,51.56
2023-05-21T09:30:16.181Z,52.25
2023-05-21T09:32:45.647Z,51.01
2023-05-21T09:35:14.409Z,51.42
2023-05-21T09:37:45.316Z,50.55
2023-05-21T09:40:15.264Z,51.01
2023-05-21T09:42:44.944Z,50.67
2023-05-21T09:45:13.526Z,50.64
2023-05-21T09:47:44.165Z,50.76
2023-05-21T09:50:12.697Z,50.57
2023-05-21T09:52:42.384Z,50.42
2023-05-21T09:55:15.029Z,50.43
2023-05-21T09:57:44.069Z,50.38
2023-05-21T10:00:20.148Z,50.59
2023-05-21T10:02:49.407Z,50.23
2023-05-21T10:05:17.985Z,50.53
2023-05-21T10:07:51.043Z,49.99
2023-05-21T10:10:22.744Z,50.16
2023-05-21T10:12:56.626Z,49.83
2023-05-21T10:15:25.872Z,50.72
2023-05-21T10:17:56.773Z,50.19
2023-05-21T10:20:25.269Z,50.37
2023-05-21T10:22:54.124Z,50.64
2023-05-21T10:25:24.819Z,49.75
2023-05-21T10:27:54.788Z,49.40
2023-05-21T10:30:22.841Z,49.74
2023-05-21T10:32:51.231Z,49.65
2023-05-21T10:35:19.532Z,49.42
2023-05-21T10:37:48.043Z,49.19
2023-05-21T10:40:16.048Z,48.98
2023-05-21T10:45:54.472Z,49.67
2023-05-21T10:48:36.646Z,49.90
2023-05-21T10:51:26.241Z,49.87
2023-05-21T10:54:20.604Z,49.73
2023-05-21T10:56:58.530Z,49.31
2023-05-21T10:59:38.002Z,49.56
2023-05-21T11:02:08.177Z,49.38
2023-05-21T11:04:39.921Z,49.58
2023-05-21T11:07:08.394Z,49.62
2023-05-21T11:09:36.312Z,50.11
2023-05-21T11:12:04.728Z,49.95
2023-05-21T11:14:36.417Z,49.92
2023-05-21T11:17:05.445Z,49.85
2023-05-21T11:19:40.042Z,49.34
2023-05-21T11:22:21.830Z,48.98
2023-05-21T11:24:51.426Z,48.75
2023-05-21T11:27:33.847Z,49.00
2023-05-21T11:30:05.761Z,48.95
2023-05-21T11:32:33.734Z,49.02
2023-05-21T11:35:03.176Z,49.33
2023-05-21T11:37:32.462Z,49.58
2023-05-21T11:40:22.412Z,49.62
2023-05-21T11:42:52.403Z,49.87
2023-05-21T11:45:21.498Z,49.58
2023-05-21T11:47:50.075Z,50.46
2023-05-21T11:50:20.440Z,50.03
2023-05-21T11:52:48.597Z,50.66
2023-05-21T11:55:17.310Z,49.66
2023-05-21T11:57:48.242Z,49.58
2023-05-21T12:00:17.473Z,49.47
2023-05-21T12:02:47.476Z,49.06
2023-05-21T12:05:15.930Z,49.46
2023-05-21T12:07:50.054Z,49.21
2023-05-21T12:10:18.459Z,49.91
2023-05-21T12:12:54.608Z,49.19
2023-05-21T12:15:25.123Z,49.51
2023-05-21T12:17:53.647Z,49.60
2023-05-21T12:20:21.822Z,49.77
2023-05-21T12:22:51.344Z,49.08
2023-05-21T12:25:21.068Z,48.79
2023-05-21T12:27:52.683Z,48.95
2023-05-21T12:30:21.910Z,49.09
2023-05-21T12:32:50.267Z,49.48
2023-05-21T12:35:24.877Z,48.66
2023-05-21T12:37:54.338Z,48.46
2023-05-21T12:40:22.345Z,48.77
2023-05-21T12:42:51.800Z,48.92
2023-05-21T12:45:21.064Z,48.62
2023-05-21T12:47:50.633Z,47.92
2023-05-21T12:50:22.791Z,47.96
2023-05-21T12:52:50.600Z,47.93
2023-05-21T12:55:19.968Z,48.38
2023-05-21T12:57:48.161Z,48.45
2023-05-21T13:00:16.129Z,48.14
2023-05-21T13:02:45.826Z,48.48
2023-05-21T13:05:17.954Z,48.12
2023-05-21T13:07:47.415Z,48.16
2023-05-21T13:10:17.264Z,48.29
2023-05-21T13:12:46.724Z,48.79
2023-05-21T13:15:16.112Z,48.45
2023-05-21T13:17:44.004Z,48.44
2023-05-21T13:20:13.217Z,47.99
2023-05-21T13:22:43.672Z,48.23
2023-05-21T13:25:12.459Z,48.32
2023-05-21T13:27:40.534Z,48.27
2023-05-21T13:30:12.081Z,47.99
2023-05-21T13:32:41.340Z,47.56
2023-05-21T13:35:10.224Z,47.51
2023-05-21T13:37:38.365Z,47.86
2023-05-21T13:40:07.728Z,48.51
2023-05-21T13:42:37.737Z,47.96
2023-05-21T13:45:06.423Z,48.30
2023-05-21T13:47:38.455Z,47.11
2023-05-21T13:50:09.290Z,47.54
2023-05-21T13:52:37.134Z,47.98
2023-05-21T13:55:05.950Z,47.49
2023-05-21T13:57:34.206Z,47.78
2023-05-21T14:00:02.443Z,47.75
2023-05-21T14:02:31.125Z,48.17
2023-05-21T14:05:00.668Z,47.83
2023-05-21T14:07:28.616Z,47.47
2023-05-21T14:09:57.024Z,47.70
2023-05-21T14:12:24.932Z,47.14
2023-05-21T14:14:52.926Z,47.76
2023-05-21T14:17:21.190Z,47.10
2023-05-21T14:19:49.158Z,47.45
2023-05-21T14:22:21.938Z,47.29
2023-05-21T14:24:49.849Z,47.23
2023-05-21T14:27:17.946Z,47.44
2023-05-21T14:29:46.034Z,47.82
2023-05-21T14:32:13.861Z,48.01
2023-05-21T14:34:41.734Z,47.56
2023-05-21T14:37:09.885Z,47.25
2023-05-21T14:39:39.101Z,47.80
2023-05-21T14:42:07.053Z,47.53
2023-05-21T14:44:35.119Z,47.64
2023-05-21T14:47:02.940Z,47.68
2023-05-21T14:49:30.740Z,47.34
2023-05-21T14:51:58.810Z,47.27
2023-05-21T14:54:26.587Z,47.56
2023-05-21T14:56:55.767Z,47.18
2023-05-21T14:59:23.813Z,46.61
2023-05-21T15:01:51.771Z,47.16
2023-05-21T15:04:19.644Z,46.74
2023-05-21T15:06:47.807Z,46.19
2023-05-21T15:09:15.714Z,46.15
2023-05-21T15:11:46.089Z,46.44
2023-05-21T15:14:18.517Z,46.92
2023-05-21T15:16:46.406Z,47.03
2023-05-21T15:19:14.304Z,46.42
2023-05-21T15:21:42.447Z,46.39
2023-05-21T15:24:11.182Z,46.08
2023-05-21T15:26:39.062Z,46.63
2023-05-21T15:29:07.340Z,46.20
2023-05-21T15:31:36.517Z,46.35
2023-05-21T15:34:04.455Z,46.33
2023-05-21T15:36:32.532Z,46.47
2023-05-21T15:39:03.349Z,46.94
2023-05-21T15:41:31.154Z,46.49
2023-05-21T15:43:59.137Z,46.88
2023-05-21T15:46:26.983Z,46.60
2023-05-21T15:48:56.578Z,46.40
2023-05-21T15:51:24.613Z,46.32
2023-05-21T15:53:52.400Z,46.02
2023-05-21T15:56:21.751Z,45.88
2023-05-21T15:58:49.574Z,46.64
2023-05-21T16:01:17.557Z,46.57
2023-05-21T16:03:45.463Z,46.63
2023-05-21T16:06:14.845Z,46.80
2023-05-21T16:08:42.458Z,46.33
2023-05-21T16:11:10.322Z,46.65
2023-05-21T16:13:38.289Z,46.58
2023-05-21T16:16:06.622Z,46.48
2023-05-21T16:18:34.435Z,46.73
2023-05-21T16:21:02.447Z,46.72
2023-05-21T16:23:33.180Z,46.45
2023-05-21T16:26:01.230Z,46.85
2023-05-21T16:28:29.781Z,46.99
2023-05-21T16:30:57.643Z,46.60
2023-05-21T16:33:25.741Z,47.04
2023-05-21T16:35:54.426Z,46.98
2023-05-21T16:38:22.628Z,46.66
2023-05-21T16:40:51.792Z,47.14
2023-05-21T16:43:19.770Z,46.88
2023-05-21T16:45:48.869Z,46.09
2023-05-21T16:48:17.402Z,46.68
2023-05-21T16:50:46.906Z,46.40
2023-05-21T16:53:14.862Z,46.53
2023-05-21T16:55:43.308Z,46.51
2023-05-21T16:58:13.713Z,46.87
2023-05-21T17:00:41.552Z,46.50
2023-05-21T17:03:09.583Z,46.85
2023-05-21T17:05:37.892Z,47.42
2023-05-21T17:08:06.278Z,47.28
2023-05-21T17:10:34.693Z,46.91
2023-05-21T17:13:17.523Z,46.92
2023-05-21T17:15:50.886Z,47.27
2023-05-21T17:18:19.165Z,47.04
2023-05-21T17:20:46.990Z,47.17
2023-05-21T17:23:14.974Z,46.94
2023-05-21T17:25:43.166Z,47.48
2023-05-21T17:28:11.216Z,47.21
2023-05-21T17:30:39.576Z,46.99
2023-05-21T17:33:10.608Z,46.88
2023-05-21T17:35:39.009Z,47.20
2023-05-21T17:38:07.157Z,46.87
2023-05-21T17:40:35.365Z,47.39
2023-05-21T17:43:04.330Z,47.04
2023-05-21T17:45:32.217Z,47.71
2023-05-21T17:48:00.977Z,47.68
2023-05-21T17:50:30.491Z,47.95
2023-05-21T17:52:58.489Z,47.40
2023-05-21T17:55:27.144Z,47.82
2023-05-21T17:57:54.957Z,47.95
2023-05-21T18:00:22.857Z,47.90
2023-05-21T18:02:51.319Z,47.61
2023-05-21T18:05:19.160Z,48.07
2023-05-21T18:07:48.356Z,48.44
2023-05-21T18:10:16.944Z,47.76
2023-05-21T18:12:46.206Z,48.02
2023-05-21T18:15:14.612Z,48.07
2023-05-21T18:17:43.028Z,47.70
2023-05-21T18:20:12.121Z,47.79
2023-05-21T18:22:40.030Z,47.77
2023-05-21T18:25:11.222Z,47.94
2023-05-21T18:27:39.096Z,48.24
2023-05-21T18:30:08.524Z,48.15
2023-05-21T18:32:39.195Z,48.30
2023-05-21T18:35:08.232Z,48.32
2023-05-21T18:37:37.261Z,47.94
2023-05-21T18:42:57.342Z,48.06
2023-05-21T18:45:25.760Z,48.62
2023-05-21T18:47:53.717Z,48.63
2023-05-21T18:50:21.760Z,48.58
2023-05-21T18:52:51.665Z,48.95
2023-05-21T18:55:20.792Z,49.04
2023-05-21T18:57:48.638Z,49.35
2023-05-21T19:00:19.201Z,49.18
2023-05-21T19:02:47.316Z,49.16
2023-05-21T19:05:15.198Z,49.41
2023-05-21T19:07:43.511Z,49.45
2023-05-21T19:10:13.133Z,49.85
2023-05-21T19:12:42.336Z,49.53
2023-05-21T19:15:11.986Z,49.64
2023-05-21T19:17:41.274Z,49.74
2023-05-21T19:20:10.679Z,49.93
2023-05-21T19:22:39.310Z,50.12
2023-05-21T19:25:08.008Z,50.20
2023-05-21T19:27:35.858Z,50.03
2023-05-21T19:30:04.609Z,50.36
2023-05-21T19:32:32.437Z,50.26
2023-05-21T19:35:01.998Z,50.38
2023-05-21T19:37:30.393Z,50.27
2023-05-21T19:39:58.224Z,50.48
2023-05-21T19:42:26.872Z,50.40
2023-05-21T19:44:55.004Z,50.53
2023-05-21T19:47:22.876Z,50.55
2023-05-21T19:49:50.718Z,50.69
2023-05-21T19:52:20.533Z,50.67
2023-05-21T19:54:48.378Z,50.47
2023-05-21T19:57:16.487Z,50.58
2023-05-21T19:59:44.358Z,50.50
2023-05-21T20:02:15.124Z,50.47
2023-05-21T20:04:42.964Z,50.51
2023-05-21T20:07:11.433Z,50.46
2023-05-21T20:09:41.270Z,50.81
2023-05-21T20:12:09.544Z,50.86
2023-05-21T20:14:37.848Z,50.82
2023-05-21T20:17:07.092Z,51.03
2023-05-21T20:19:35.799Z,51.21
2023-05-21T20:22:03.956Z,51.10
2023-05-21T20:24:31.848Z,51.46
2023-05-21T20:27:01.971Z,51.52
2023-05-21T20:29:30.304Z,51.80
2023-05-21T20:31:58.129Z,51.97
2023-05-21T20:34:27.350Z,51.79
2023-05-21T20:36:58.414Z,52.01
2023-05-21T20:39:27.800Z,52.14
2023-05-21T20:41:56.005Z,51.80
2023-05-21T20:44:27.704Z,51.93
2023-05-21T20:46:55.676Z,52.11
2023-05-21T20:49:24.759Z,51.94
2023-05-21T20:51:53.072Z,51.92
2023-05-21T20:54:22.218Z,51.78
2023-05-21T20:56:55.005Z,52.09
2023-05-21T20:59:22.806Z,51.92
2023-05-21T21:01:52.564Z,52.12
2023-05-21T21:04:20.946Z,51.72
2023-05-21T21:06:50.224Z,51.96
2023-05-21T21:09:18.266Z,52.17
2023-05-21T21:11:46.350Z,51.93
2023-05-21T21:14:14.807Z,52.22
2023-05-21T21:16:42.801Z,52.23
2023-05-21T21:19:12.521Z,52.05
2023-05-21T21:21:40.428Z,52.11
2023-05-21T21:24:08.775Z,52.68
2023-05-21T21:26:36.927Z,52.23
2023-05-21T21:29:04.907Z,52.33
2023-05-21T21:31:32.769Z,52.43
2023-05-21T21:34:01.493Z,52.51
2023-05-21T21:36:31.247Z,52.37
2023-05-21T21:38:59.055Z,52.59
2023-05-21T21:41:27.420Z,52.86
2023-05-21T21:43:55.295Z,52.63
2023-05-21T21:46:23.459Z,53.07
2023-05-21T21:48:51.853Z,52.86
2023-05-21T21:51:23.199Z,52.76
2023-05-21T21:53:53.383Z,53.20
2023-05-21T21:56:22.073Z,52.86
2023-05-21T21:58:49.931Z,53.13
2023-05-21T22:01:18.832Z,52.94
2023-05-21T22:03:46.866Z,52.94
2023-05-21T22:06:14.705Z,53.20
2023-05-21T22:08:42.896Z,53.01
2023-05-21T22:11:12.277Z,52.94
2023-05-21T22:13:41.606Z,52.95
2023-05-21T22:16:12.288Z,52.80
2023-05-21T22:18:41.960Z,52.77
2023-05-21T22:21:10.645Z,52.69
2023-05-21T22:23:39.844Z,52.76
2023-05-21T22:26:08.207Z,52.81
2023-05-21T22:28:37.447Z,52.89
2023-05-21T22:31:06.628Z,52.96
2023-05-21T22:33:34.487Z,53.23
2023-05-21T22:36:02.340Z,53.16
2023-05-21T22:38:30.962Z,53.40
2023-05-21T22:40:58.870Z,53.53
2023-05-21T22:43:27.180Z,53.19
2023-05-21T22:45:57.004Z,53.49
2023-05-21T22:48:24.935Z,53.57
2023-05-21T22:50:53.421Z,53.71
2023-05-21T22:53:22.069Z,53.46
2023-05-21T22:55:49.954Z,53.69
2023-05-21T22:58:18.249Z,53.92
2023-05-21T23:00:46.572Z,53.77
2023-05-21T23:03:16.278Z,53.76
2023-05-21T23:05:44.592Z,53.75
2023-05-21T23:08:13.503Z,53.76
2023-05-21T23:10:41.583Z,54.27
2023-05-21T23:13:09.569Z,54.29
2023-05-21T23:15:39.312Z,54.21
2023-05-21T23:18:08.770Z,54.38
2023-05-21T23:20:41.796Z,54.17
2023-05-21T23:23:10.527Z,54.35
2023-05-21T23:25:38.511Z,54.50
2023-05-21T23:28:07.233Z,54.56
2023-05-21T23:30:35.105Z,54.52
2023-05-21T23:33:03.642Z,55.16
2023-05-21T23:35:32.031Z,54.91
2023-05-21T23:38:01.274Z,54.89
2023-05-21T23:40:29.095Z,54.88
2023-05-21T23:42:57.405Z,54.93
2023-05-21T23:45:25.246Z,54.92
2023-05-21T23:47:53.654Z,55.35
2023-05-21T23:50:22.506Z,55.05
2023-05-21T23:52:50.768Z,55.11
2023-05-21T23:55:19.989Z,55.49
2023-05-21T23:57:48.362Z,55.57
